La Guera, Western Sahara
Current Conditions -  °F | °C
As of 9:00 PM on Tuesday 21 Oct 2014 (Local Time) from GQPP Reporting Station
Clear Clear  
Wind Chill: 75°   Ceiling: Unl
Heat Index: 75°   Visibility: 5mi
Dew Point: 64°   Wind: 16mph
Humidity: 69%   Direction: 350°N
Pressure: 29.97"   Gusts: NA
Location:  20.83°N, 17.1°W
Report Text: GQPP 212100Z 35014KT 8000 NSC 24/18 Q1015 NOSIG
Loading
Personal Weather Stations






























Interactive Weather Map
Tropical Storm Tracking
New forecast layout! Learn more

10-Day Weather Forecast

Advertisements
Track Severe Weather on mobile